Cebollita Spring, Valles Caldera, New Mexico Weather observations

Data are for 10 minute period ending at time listed.
 Day   Time   Solar   Ave.   Ave.  Ave.  Vector  Max.   Baro.   Total    
  of    of     Rad.   Air    Rel.  Wind   Wind   Wind  Press.  Precip.   
Year   Day            Temp.  Hum.  Speed  Dir.   Gust                    
2016   (MST)  Kw/m2    F      %     mph   deg.    mph    mb.     in.     
-------------------------------------------------------------------------
 148   15:30   0.52   61.8    18    8.5   272    15.5   99999.0    0.00 
 148   15:40   0.57   60.5    20   10.5   273    23.3   99999.0    0.00 
 148   15:50   0.59   59.9    19   10.7   281    18.5   99999.0    0.00 
 148   16:00   0.67   61.3    18   10.2   286    21.5   99999.0    0.00 
 148   16:10   0.64   62.1    17   10.0   268    21.5   99999.0    0.00 
 148   16:20   0.56   61.0    16   10.8   283    23.9   99999.0    0.00 
 148   16:30   0.34   60.7    17    9.0   287    22.1   99999.0    0.00 
 148   16:40   0.44   60.0    18   10.0   258    18.5   99999.0    0.00 
 148   16:50   0.43   59.4    19    9.8   270    18.5   99999.0    0.00 
 148   17:00   0.26   60.1    18    8.3   290    19.7   99999.0    0.00 
 148   17:10   0.17   58.0    21    7.3   290    13.7   99999.0    0.00 
 148   17:20   0.08   56.3    22    7.7   262    14.9   99999.0    0.00 
 148   17:30   0.17   56.0    22    7.6   262    13.7   99999.0    0.00 
 148   17:40   0.28   57.8    19    9.9   263    20.9   99999.0    0.00 
 148   17:50   0.11   57.2    19    8.8   281    14.3   99999.0    0.00 
 148   18:00   0.23   56.9    20    7.2   278    16.7   99999.0    0.00 
 148   18:10   0.17   57.4    20    5.9   276    11.3   99999.0    0.00 
 148   18:20   0.13   56.6    20    8.2   275    16.7   99999.0    0.00 
 148   18:30   0.07   56.0    21    7.5   275    16.1   99999.0    0.00 
 148   18:40   0.03   54.7    22    6.4   264    11.3   99999.0    0.00 
 148   18:50   0.02   53.7    23    7.4   275    14.3   99999.0    0.00 
 148   19:00   0.01   53.2    23    6.2   270    13.1   99999.0    0.00 
 148   19:10   0.01   52.4    24    5.0   264    11.1   99999.0    0.00 
 148   19:20   0.00   52.3    24    5.4   261    10.2   99999.0    0.00 
 148   19:30   0.00   52.6    25    6.8   228    13.1   99999.0    0.00 
 148   19:40   0.00   51.8    27    3.8   250     6.6   99999.0    0.00 
 148   19:50   0.00   50.6    29    2.4   262     4.8   99999.0    0.00 
 148   20:00   0.00   49.4    30    2.8   272     5.4   99999.0    0.00 
 148   20:10   0.00   48.5    30    5.5   306    11.3   99999.0    0.00 
 148   20:20   0.00   48.5    35    3.7   348     7.8   99999.0    0.00 
 148   20:30   0.00   47.1    43    3.3     1     6.6   99999.0    0.00 
 148   20:40   0.00   46.1    47    3.7   347     7.8   99999.0    0.00 
 148   20:50   0.00   45.5    49    3.4   359     6.6   99999.0    0.00 
 148   21:00   0.00   44.7    51    3.5   360     7.2   99999.0    0.00 
 148   21:10   0.00   44.4    53    4.2   353     8.4   99999.0    0.00 
 148   21:20   0.00   44.2    54    3.8   357     9.6   99999.0    0.00 
 148   21:30   0.00   43.6    55    3.8     1     8.4   99999.0    0.00 
 148   21:40   0.00   43.6    55    3.7   357     8.4   99999.0    0.00 
 148   21:50   0.00   43.0    57    2.8     5     6.0   99999.0    0.00 
 148   22:00   0.00   42.0    59    2.9   356     6.0   99999.0    0.00 
 148   22:10   0.00   41.5    60    3.2    18     7.2   99999.0    0.00 
 148   22:20   0.00   40.6    61    2.7    18     5.4   99999.0    0.00 
 148   22:30   0.00   40.0    62    2.5    11     5.4   99999.0    0.00 
 148   22:40   0.00   39.5    62    2.5    21     4.2   99999.0    0.00 
 148   22:50   0.00   38.9    64    2.0    10     3.0   99999.0    0.00 
 148   23:00   0.00   37.5    66    2.4     6     4.2   99999.0    0.00 
 148   23:10   0.00   35.9    69    1.8     2     3.6   99999.0    0.00 
 148   23:20   0.00   35.2    71    2.8   354     5.4   99999.0    0.00 
 148   23:30   0.00   34.8    71    2.4   355     4.8   99999.0    0.00 
 148   23:40   0.00   34.0    72    2.0   350     3.6   99999.0    0.00 
 148   23:50   0.00   33.2    74    2.5   354     4.2   99999.0    0.00 
 149    0:00   0.00   33.2    75    2.5   356     4.8   99999.0    0.00 
 149    0:10   0.00   33.5    74    2.3   358     4.2   99999.0    0.00 
 149    0:20   0.00   33.3    74    2.4   355     4.2   99999.0    0.00 
 149    0:30   0.00   32.7    75    2.7   357     4.8   99999.0    0.00 
 149    0:40   0.00   32.5    75    2.3     2     4.8   99999.0    0.00 
 149    0:50   0.00   32.0    77    1.0    22     3.6   99999.0    0.00 
 149    1:00   0.00   31.2    78    0.6    51     1.8   99999.0    0.00 
 149    1:10   0.00   30.3    80    1.4    71     3.0   99999.0    0.00 
 149    1:20   0.00   29.9    82    2.1    52     3.0   99999.0    0.00 
 149    1:30   0.00   29.6    82    1.9    15     3.6   99999.0    0.00 
 149    1:40   0.00   29.4    83    1.5     8     4.2   99999.0    0.00 
 149    1:50   0.00   29.4    82    1.1    30     2.4   99999.0    0.00 
 149    2:00   0.00   29.3    82    0.6    38     2.4   99999.0    0.00 
 149    2:10   0.00   29.0    83    0.8    38     2.7   99999.0    0.00 
 149    2:20   0.00   28.9    83    1.3    45     2.4   99999.0    0.00 
 149    2:30   0.00   28.8    84    0.9    31     1.8   99999.0    0.00 
 149    2:40   0.00   28.6    84    0.2    32     1.8   99999.0    0.00 
 149    2:50   0.00   28.4    84    1.4    60     2.4   99999.0    0.00 
 149    3:00   0.00   28.2    84    2.3    62     3.0   99999.0    0.00 
 149    3:10   0.00   28.1    84    2.5    63     3.0   99999.0    0.00 
 149    3:20   0.00   27.9    85    2.6    68     3.6   99999.0    0.00 
 149    3:30   0.00   27.9    85    2.3    70     4.2   99999.0    0.00 
 149    3:40   0.00   28.0    85    2.3    66     3.6   99999.0    0.00 
 149    3:50   0.00   27.9    84    1.7    61     3.0   99999.0    0.00 
 149    4:00   0.00   27.5    86    0.4    56     1.8   99999.0    0.00 
 149    4:10   0.00   27.1    87    2.1    54     3.0   99999.0    0.00 
 149    4:20   0.00   26.8    88    2.1    61     3.0   99999.0    0.00 
 149    4:30   0.00   26.7    89    2.0    64     2.4   99999.0    0.00 
 149    4:40   0.00   26.7    89    1.8    57     2.4   99999.0    0.00 
 149    4:50   0.00   26.8    89    1.8    59     3.0   99999.0    0.00 
 149    5:00   0.01   26.9    90    2.3    62     3.0   99999.0    0.00 
 149    5:10   0.01   27.0    89    2.4    66     3.0   99999.0    0.00 
 149    5:20   0.02   27.2    89    2.2    60     3.0   99999.0    0.00 
 149    5:30   0.02   27.5    89    0.8    51     1.8   99999.0    0.00 
 149    5:40   0.03   28.0    88    1.5    64     2.4   99999.0    0.00 
 149    5:50   0.14   28.8    88    1.8    73     2.4   99999.0    0.00 
 149    6:00   0.19   30.4    85    0.9    73     2.4   99999.0    0.00 
 149    6:10   0.23   33.0    82    0.0    57     1.2   99999.0    0.00 
 149    6:20   0.27   36.6    76    0.0     0     0.0   99999.0    0.00 
 149    6:30   0.30   38.7    73    0.0   116     1.2   99999.0    0.00 
 149    6:40   0.35   40.4    73    0.1   263     1.2   99999.0    0.00 
 149    6:50   0.39   42.9    67    0.0   260     1.2   99999.0    0.00 
 149    7:00   0.43   46.7    49    0.3   296     1.5   99999.0    0.00 
 149    7:10   0.47   49.4    37    0.7   317     2.4   99999.0    0.00 
 149    7:20   0.51   51.3    34    1.4   114     2.4   99999.0    0.00 
 149    7:30   0.55   53.5    32    0.9   310     2.4   99999.0    0.00 
 149    7:40   0.59   54.1    31    1.7   230     4.8   99999.0    0.00 
 149    7:50   0.63   55.3    28    2.5   208     4.8   99999.0    0.00 
 149    8:00   0.67   56.9    27    2.7   183     6.0   99999.0    0.00 
 149    8:10   0.71   57.0    26    3.9   244     9.0   99999.0    0.00 
 149    8:20   0.74   57.2    25    4.0   264     8.4   99999.0    0.00 
 149    8:30   0.47   56.1    27    4.4   212     7.8   99999.0    0.00 
 149    8:40   0.81   58.2    26    4.0   202    10.8   99999.0    0.00 
 149    8:50   0.68   58.0    25    4.3   252     9.0   99999.0    0.00 
 149    9:00   1.03   58.5    24    4.0   209     6.6   99999.0    0.00 
 149    9:10   0.26   57.9    26    5.2   235    10.8   99999.0    0.00 
 149    9:20   0.38   55.1    29    3.9   238    10.2   99999.0    0.00 
 149    9:30   1.12   58.5    25    5.1   240    10.2   99999.0    0.00 
 149    9:40   0.93   60.0    22    4.0   252     9.0   99999.0    0.00 
 149    9:50   0.25   57.8    25    3.8   210     7.2   99999.0    0.00 
 149   10:00   0.25   56.3    28    3.5   205    10.2   99999.0    0.00 
 149   10:10   0.30   56.5    27    2.9   192     6.0   99999.0    0.00 
 149   10:20   0.26   56.9    26    1.1   286     3.6   99999.0    0.00 
 149   10:30   0.20   56.2    27    4.6   269     9.6   99999.0    0.00 
 149   10:40   0.26   56.1    27    3.2   288     5.4   99999.0    0.00 
 149   10:50   1.10   58.0    25    1.9   155     6.0   99999.0    0.00 
 149   11:00   0.72   60.1    22    4.4    62     8.7   99999.0    0.00 
 149   11:10   0.59   59.8    22    4.9   311    13.1   99999.0    0.00 
 149   11:20   0.47   58.9    23    3.8   279     7.8   99999.0    0.00 
 149   11:30   0.68   59.6    23    6.1   247    11.3   99999.0    0.00 
 149   11:40   1.08   62.5    19    4.8   233     9.6   99999.0    0.00 
 149   11:50   0.58   61.3    20    4.9   212    11.9   99999.0    0.00 
 149   12:00   0.33   60.0    19    3.1   209     6.6   99999.0    0.00 
 149   12:10   0.85   60.8    21    5.1   232    13.1   99999.0    0.00 
 149   12:20   0.74   63.4    17    5.1   214    10.8   99999.0    0.00 
 149   12:30   1.18   63.8    17    6.7   230    13.7   99999.0    0.00 
 149   12:40   1.30   65.3    16    6.1   175    11.9   99999.0    0.00 
 149   12:50   1.06   65.4    15    5.2   200    12.5   99999.0    0.00 
 149   13:00   0.74   63.7    15    4.9   212    10.8   99999.0    0.00 
 149   13:10   0.88   63.6    15    4.7   206    11.3   99999.0    0.00 
 149   13:20   0.65   65.4    15    6.6   230    16.1   99999.0    0.00 
 149   13:30   0.86   63.5    16    5.7   243    13.7   99999.0    0.00 
 149   13:40   0.51   64.5    15    8.5   230    19.1   99999.0    0.00 
 149   13:50   0.75   63.2    16    4.6   215     9.0   99999.0    0.00 
 149   14:00   0.55   64.2    16    5.5   246    16.1   99999.0    0.00 
 149   14:10   0.89   64.6    16    5.3   168    14.9   99999.0    0.00 
 149   14:20   1.03   66.5    15    8.8   220    19.1   99999.0    0.00 
 149   14:30   0.80   67.4    16    5.6   195    11.9   99999.0    0.00 
 149   14:40   0.78   64.8    18    4.9   171    11.9   99999.0    0.00 
 149   14:50   0.70   66.4    17    6.3   195    14.3   99999.0    0.00 
 149   15:00   0.42   63.4    19    5.1   175    11.9   99999.0    0.00 
 149   15:10   1.06   65.2    18    4.4   194    12.5   99999.0    0.00 
 149   15:20   0.52   65.4    18    3.6   142     9.6   99999.0    0.00 

Return to Cebollita Spring, Valles Caldera graphs page.


Western Regional Climate Center,wrcc@dri.edu